sensor_id;sensor_type;location;lat;lon;timestamp;P1;durP1;ratioP1;P2;durP2;ratioP2
5795;SDS011;2924;51.458;7.046;2023-03-09T00:01:24;52.20;;;22.57;;
5795;SDS011;2924;51.458;7.046;2023-03-09T00:03:55;49.23;;;21.60;;
5795;SDS011;2924;51.458;7.046;2023-03-09T00:06:21;42.17;;;19.90;;
5795;SDS011;2924;51.458;7.046;2023-03-09T00:08:47;44.60;;;19.37;;
5795;SDS011;2924;51.458;7.046;2023-03-09T00:11:13;42.00;;;18.73;;
5795;SDS011;2924;51.458;7.046;2023-03-09T00:13:40;47.10;;;21.43;;
5795;SDS011;2924;51.458;7.046;2023-03-09T00:18:41;48.30;;;21.27;;
5795;SDS011;2924;51.458;7.046;2023-03-09T00:21:07;43.33;;;22.63;;
5795;SDS011;2924;51.458;7.046;2023-03-09T00:23:39;44.43;;;21.80;;
5795;SDS011;2924;51.458;7.046;2023-03-09T00:26:10;42.87;;;21.40;;
5795;SDS011;2924;51.458;7.046;2023-03-09T00:28:36;40.73;;;20.63;;
5795;SDS011;2924;51.458;7.046;2023-03-09T00:31:03;41.97;;;22.00;;
5795;SDS011;2924;51.458;7.046;2023-03-09T00:33:30;45.17;;;22.70;;
5795;SDS011;2924;51.458;7.046;2023-03-09T00:35:56;40.63;;;20.50;;
5795;SDS011;2924;51.458;7.046;2023-03-09T00:38:22;40.87;;;20.97;;
5795;SDS011;2924;51.458;7.046;2023-03-09T00:40:49;35.97;;;17.87;;
5795;SDS011;2924;51.458;7.046;2023-03-09T00:43:15;37.50;;;18.70;;
5795;SDS011;2924;51.458;7.046;2023-03-09T00:45:40;32.33;;;17.97;;
5795;SDS011;2924;51.458;7.046;2023-03-09T00:48:06;40.33;;;19.60;;
5795;SDS011;2924;51.458;7.046;2023-03-09T00:50:32;44.73;;;23.03;;
5795;SDS011;2924;51.458;7.046;2023-03-09T00:52:57;54.03;;;27.03;;
5795;SDS011;2924;51.458;7.046;2023-03-09T00:55:23;51.37;;;23.47;;
5795;SDS011;2924;51.458;7.046;2023-03-09T00:57:49;50.40;;;21.93;;
5795;SDS011;2924;51.458;7.046;2023-03-09T01:00:14;55.73;;;25.10;;
5795;SDS011;2924;51.458;7.046;2023-03-09T01:02:40;53.47;;;24.93;;
5795;SDS011;2924;51.458;7.046;2023-03-09T01:05:06;48.00;;;23.03;;
5795;SDS011;2924;51.458;7.046;2023-03-09T01:07:32;62.27;;;26.37;;
5795;SDS011;2924;51.458;7.046;2023-03-09T01:09:59;66.97;;;28.80;;
5795;SDS011;2924;51.458;7.046;2023-03-09T01:12:25;55.50;;;23.93;;
5795;SDS011;2924;51.458;7.046;2023-03-09T01:14:54;58.57;;;23.70;;
5795;SDS011;2924;51.458;7.046;2023-03-09T01:17:21;59.70;;;24.03;;
5795;SDS011;2924;51.458;7.046;2023-03-09T01:19:47;62.87;;;25.67;;
5795;SDS011;2924;51.458;7.046;2023-03-09T01:22:13;66.10;;;25.33;;
5795;SDS011;2924;51.458;7.046;2023-03-09T01:24:39;65.43;;;25.77;;
5795;SDS011;2924;51.458;7.046;2023-03-09T01:27:05;78.33;;;29.10;;
5795;SDS011;2924;51.458;7.046;2023-03-09T01:29:31;65.20;;;26.50;;
5795;SDS011;2924;51.458;7.046;2023-03-09T01:31:57;73.70;;;29.13;;
5795;SDS011;2924;51.458;7.046;2023-03-09T01:34:22;70.27;;;27.67;;
5795;SDS011;2924;51.458;7.046;2023-03-09T01:36:48;69.30;;;27.17;;
5795;SDS011;2924;51.458;7.046;2023-03-09T01:39:14;74.00;;;29.73;;
5795;SDS011;2924;51.458;7.046;2023-03-09T01:41:40;80.47;;;27.00;;
5795;SDS011;2924;51.458;7.046;2023-03-09T01:44:05;74.77;;;27.37;;
5795;SDS011;2924;51.458;7.046;2023-03-09T01:46:48;67.83;;;25.97;;
5795;SDS011;2924;51.458;7.046;2023-03-09T01:51:45;73.87;;;25.63;;
5795;SDS011;2924;51.458;7.046;2023-03-09T01:59:42;69.70;;;26.53;;
5795;SDS011;2924;51.458;7.046;2023-03-09T02:02:09;66.27;;;25.53;;
5795;SDS011;2924;51.458;7.046;2023-03-09T02:04:40;67.87;;;25.07;;
5795;SDS011;2924;51.458;7.046;2023-03-09T02:07:10;56.30;;;22.87;;
5795;SDS011;2924;51.458;7.046;2023-03-09T02:09:42;57.70;;;22.77;;
5795;SDS011;2924;51.458;7.046;2023-03-09T02:12:12;57.77;;;24.37;;
5795;SDS011;2924;51.458;7.046;2023-03-09T02:14:41;49.70;;;23.00;;
5795;SDS011;2924;51.458;7.046;2023-03-09T02:17:06;54.90;;;23.17;;
5795;SDS011;2924;51.458;7.046;2023-03-09T02:22:03;50.73;;;22.33;;
5795;SDS011;2924;51.458;7.046;2023-03-09T02:24:42;56.60;;;24.00;;
5795;SDS011;2924;51.458;7.046;2023-03-09T02:27:20;58.63;;;25.90;;
5795;SDS011;2924;51.458;7.046;2023-03-09T02:29:47;58.57;;;25.00;;
5795;SDS011;2924;51.458;7.046;2023-03-09T02:32:13;50.63;;;23.40;;
5795;SDS011;2924;51.458;7.046;2023-03-09T02:34:39;50.50;;;24.53;;
5795;SDS011;2924;51.458;7.046;2023-03-09T02:37:24;56.03;;;24.60;;
5795;SDS011;2924;51.458;7.046;2023-03-09T02:39:57;51.67;;;24.13;;
5795;SDS011;2924;51.458;7.046;2023-03-09T02:42:26;55.13;;;24.87;;
5795;SDS011;2924;51.458;7.046;2023-03-09T02:44:53;55.93;;;24.17;;
5795;SDS011;2924;51.458;7.046;2023-03-09T02:47:20;58.80;;;25.00;;
5795;SDS011;2924;51.458;7.046;2023-03-09T02:49:47;51.83;;;22.77;;
5795;SDS011;2924;51.458;7.046;2023-03-09T02:52:13;51.87;;;23.53;;
5795;SDS011;2924;51.458;7.046;2023-03-09T02:54:39;44.90;;;22.00;;
5795;SDS011;2924;51.458;7.046;2023-03-09T02:57:05;50.43;;;22.20;;
5795;SDS011;2924;51.458;7.046;2023-03-09T02:59:31;47.87;;;22.17;;
5795;SDS011;2924;51.458;7.046;2023-03-09T03:01:57;49.60;;;22.50;;
5795;SDS011;2924;51.458;7.046;2023-03-09T03:04:23;55.50;;;23.07;;
5795;SDS011;2924;51.458;7.046;2023-03-09T03:06:49;55.57;;;22.90;;
5795;SDS011;2924;51.458;7.046;2023-03-09T03:09:14;48.77;;;21.03;;
5795;SDS011;2924;51.458;7.046;2023-03-09T03:11:40;49.93;;;23.53;;
5795;SDS011;2924;51.458;7.046;2023-03-09T03:14:06;57.20;;;24.63;;
5795;SDS011;2924;51.458;7.046;2023-03-09T03:16:35;51.47;;;22.87;;
5795;SDS011;2924;51.458;7.046;2023-03-09T03:19:01;62.70;;;26.07;;
5795;SDS011;2924;51.458;7.046;2023-03-09T03:21:27;48.70;;;23.00;;
5795;SDS011;2924;51.458;7.046;2023-03-09T03:23:52;57.77;;;23.60;;
5795;SDS011;2924;51.458;7.046;2023-03-09T03:26:19;65.10;;;26.40;;
5795;SDS011;2924;51.458;7.046;2023-03-09T03:28:44;57.53;;;24.10;;
5795;SDS011;2924;51.458;7.046;2023-03-09T03:31:10;50.90;;;23.13;;
5795;SDS011;2924;51.458;7.046;2023-03-09T03:33:36;53.80;;;22.43;;
5795;SDS011;2924;51.458;7.046;2023-03-09T03:36:02;60.03;;;23.53;;
5795;SDS011;2924;51.458;7.046;2023-03-09T03:38:28;49.43;;;24.40;;
5795;SDS011;2924;51.458;7.046;2023-03-09T03:40:54;66.10;;;25.90;;
5795;SDS011;2924;51.458;7.046;2023-03-09T03:43:19;60.90;;;25.83;;
5795;SDS011;2924;51.458;7.046;2023-03-09T03:45:45;53.60;;;24.67;;
5795;SDS011;2924;51.458;7.046;2023-03-09T03:48:11;60.20;;;25.80;;
5795;SDS011;2924;51.458;7.046;2023-03-09T03:50:36;61.47;;;26.40;;
5795;SDS011;2924;51.458;7.046;2023-03-09T03:53:03;59.27;;;23.60;;
5795;SDS011;2924;51.458;7.046;2023-03-09T03:55:29;57.87;;;25.47;;
5795;SDS011;2924;51.458;7.046;2023-03-09T03:57:55;55.00;;;23.40;;
5795;SDS011;2924;51.458;7.046;2023-03-09T04:00:20;63.50;;;26.80;;
5795;SDS011;2924;51.458;7.046;2023-03-09T04:02:47;53.70;;;24.70;;
5795;SDS011;2924;51.458;7.046;2023-03-09T04:05:13;77.00;;;28.47;;
5795;SDS011;2924;51.458;7.046;2023-03-09T04:07:38;73.63;;;29.23;;
5795;SDS011;2924;51.458;7.046;2023-03-09T04:10:04;73.80;;;28.43;;
5795;SDS011;2924;51.458;7.046;2023-03-09T04:12:30;58.73;;;25.63;;
5795;SDS011;2924;51.458;7.046;2023-03-09T04:14:56;65.03;;;26.37;;
5795;SDS011;2924;51.458;7.046;2023-03-09T04:17:22;62.00;;;26.60;;
5795;SDS011;2924;51.458;7.046;2023-03-09T04:19:47;63.37;;;26.53;;
5795;SDS011;2924;51.458;7.046;2023-03-09T04:22:13;61.67;;;25.77;;
5795;SDS011;2924;51.458;7.046;2023-03-09T04:24:39;69.70;;;28.10;;
5795;SDS011;2924;51.458;7.046;2023-03-09T04:27:04;71.03;;;28.30;;
5795;SDS011;2924;51.458;7.046;2023-03-09T04:29:30;62.30;;;27.63;;
5795;SDS011;2924;51.458;7.046;2023-03-09T04:31:56;70.17;;;26.27;;
5795;SDS011;2924;51.458;7.046;2023-03-09T04:34:21;63.00;;;25.63;;
5795;SDS011;2924;51.458;7.046;2023-03-09T04:36:47;64.77;;;26.97;;
5795;SDS011;2924;51.458;7.046;2023-03-09T04:39:13;69.97;;;26.40;;
5795;SDS011;2924;51.458;7.046;2023-03-09T04:41:38;67.23;;;26.37;;
5795;SDS011;2924;51.458;7.046;2023-03-09T04:44:04;62.60;;;25.53;;
5795;SDS011;2924;51.458;7.046;2023-03-09T04:46:30;65.13;;;26.23;;
5795;SDS011;2924;51.458;7.046;2023-03-09T04:48:55;68.53;;;26.87;;
5795;SDS011;2924;51.458;7.046;2023-03-09T04:51:21;66.07;;;27.93;;
5795;SDS011;2924;51.458;7.046;2023-03-09T04:53:47;63.43;;;26.70;;
5795;SDS011;2924;51.458;7.046;2023-03-09T04:56:13;78.73;;;28.40;;
5795;SDS011;2924;51.458;7.046;2023-03-09T04:58:38;62.93;;;24.63;;
5795;SDS011;2924;51.458;7.046;2023-03-09T05:01:04;67.33;;;26.33;;
5795;SDS011;2924;51.458;7.046;2023-03-09T05:03:30;62.43;;;25.37;;
5795;SDS011;2924;51.458;7.046;2023-03-09T05:05:56;72.13;;;29.00;;
5795;SDS011;2924;51.458;7.046;2023-03-09T05:08:22;72.40;;;26.20;;
5795;SDS011;2924;51.458;7.046;2023-03-09T05:10:47;74.63;;;27.20;;
5795;SDS011;2924;51.458;7.046;2023-03-09T05:13:13;71.23;;;27.00;;
5795;SDS011;2924;51.458;7.046;2023-03-09T05:15:39;79.77;;;27.60;;
5795;SDS011;2924;51.458;7.046;2023-03-09T05:18:06;113.93;;;28.80;;
5795;SDS011;2924;51.458;7.046;2023-03-09T05:20:32;71.00;;;25.47;;
5795;SDS011;2924;51.458;7.046;2023-03-09T05:22:59;75.60;;;28.43;;
5795;SDS011;2924;51.458;7.046;2023-03-09T05:25:25;80.33;;;28.87;;
5795;SDS011;2924;51.458;7.046;2023-03-09T05:27:51;82.80;;;28.50;;
5795;SDS011;2924;51.458;7.046;2023-03-09T05:30:17;84.53;;;27.87;;
5795;SDS011;2924;51.458;7.046;2023-03-09T05:32:44;65.87;;;27.93;;
5795;SDS011;2924;51.458;7.046;2023-03-09T05:35:10;85.73;;;27.80;;
5795;SDS011;2924;51.458;7.046;2023-03-09T05:37:36;83.60;;;28.00;;
5795;SDS011;2924;51.458;7.046;2023-03-09T05:40:02;79.47;;;26.70;;
5795;SDS011;2924;51.458;7.046;2023-03-09T05:42:31;72.30;;;27.23;;
5795;SDS011;2924;51.458;7.046;2023-03-09T05:44:57;70.20;;;26.10;;
5795;SDS011;2924;51.458;7.046;2023-03-09T05:47:24;71.43;;;26.10;;
5795;SDS011;2924;51.458;7.046;2023-03-09T05:49:50;72.50;;;26.47;;
5795;SDS011;2924;51.458;7.046;2023-03-09T05:52:15;79.63;;;29.97;;
5795;SDS011;2924;51.458;7.046;2023-03-09T05:54:41;88.37;;;31.00;;
5795;SDS011;2924;51.458;7.046;2023-03-09T05:57:07;82.60;;;28.93;;
5795;SDS011;2924;51.458;7.046;2023-03-09T05:59:35;89.70;;;30.60;;
5795;SDS011;2924;51.458;7.046;2023-03-09T06:02:01;111.23;;;33.30;;
5795;SDS011;2924;51.458;7.046;2023-03-09T06:04:26;95.60;;;30.20;;
5795;SDS011;2924;51.458;7.046;2023-03-09T06:06:52;85.03;;;28.83;;
5795;SDS011;2924;51.458;7.046;2023-03-09T06:09:17;97.37;;;32.60;;
5795;SDS011;2924;51.458;7.046;2023-03-09T06:11:43;90.80;;;33.10;;
5795;SDS011;2924;51.458;7.046;2023-03-09T06:14:09;105.90;;;32.40;;
5795;SDS011;2924;51.458;7.046;2023-03-09T06:16:35;97.43;;;31.30;;
5795;SDS011;2924;51.458;7.046;2023-03-09T06:19:01;93.17;;;32.87;;
5795;SDS011;2924;51.458;7.046;2023-03-09T06:21:26;89.70;;;30.33;;
5795;SDS011;2924;51.458;7.046;2023-03-09T06:23:53;94.53;;;33.80;;
5795;SDS011;2924;51.458;7.046;2023-03-09T06:26:19;96.60;;;30.10;;
5795;SDS011;2924;51.458;7.046;2023-03-09T06:28:46;86.67;;;31.27;;
5795;SDS011;2924;51.458;7.046;2023-03-09T06:31:12;100.17;;;33.10;;
5795;SDS011;2924;51.458;7.046;2023-03-09T06:33:40;83.40;;;30.23;;
5795;SDS011;2924;51.458;7.046;2023-03-09T06:36:07;105.60;;;33.57;;
5795;SDS011;2924;51.458;7.046;2023-03-09T06:38:37;89.67;;;31.10;;
5795;SDS011;2924;51.458;7.046;2023-03-09T06:41:04;111.43;;;32.77;;
5795;SDS011;2924;51.458;7.046;2023-03-09T06:43:30;90.30;;;30.70;;
5795;SDS011;2924;51.458;7.046;2023-03-09T06:45:56;100.67;;;32.47;;
5795;SDS011;2924;51.458;7.046;2023-03-09T06:48:21;95.30;;;30.73;;
5795;SDS011;2924;51.458;7.046;2023-03-09T06:50:47;102.03;;;33.83;;
5795;SDS011;2924;51.458;7.046;2023-03-09T06:53:13;119.70;;;33.47;;
5795;SDS011;2924;51.458;7.046;2023-03-09T06:55:40;93.53;;;31.57;;
5795;SDS011;2924;51.458;7.046;2023-03-09T06:58:06;113.40;;;32.47;;
5795;SDS011;2924;51.458;7.046;2023-03-09T07:00:32;99.37;;;32.83;;
5795;SDS011;2924;51.458;7.046;2023-03-09T07:03:02;105.70;;;33.60;;
5795;SDS011;2924;51.458;7.046;2023-03-09T07:05:29;107.03;;;33.90;;
5795;SDS011;2924;51.458;7.046;2023-03-09T07:07:54;125.20;;;33.80;;
5795;SDS011;2924;51.458;7.046;2023-03-09T07:10:20;115.43;;;35.47;;
5795;SDS011;2924;51.458;7.046;2023-03-09T07:12:47;113.00;;;33.27;;
5795;SDS011;2924;51.458;7.046;2023-03-09T07:15:13;96.10;;;33.87;;
5795;SDS011;2924;51.458;7.046;2023-03-09T07:17:40;97.80;;;30.83;;
5795;SDS011;2924;51.458;7.046;2023-03-09T07:20:07;95.40;;;34.27;;
5795;SDS011;2924;51.458;7.046;2023-03-09T07:22:34;92.83;;;32.97;;
5795;SDS011;2924;51.458;7.046;2023-03-09T07:24:59;83.30;;;32.37;;
5795;SDS011;2924;51.458;7.046;2023-03-09T07:27:25;71.37;;;29.07;;
5795;SDS011;2924;51.458;7.046;2023-03-09T07:29:51;98.10;;;32.80;;
5795;SDS011;2924;51.458;7.046;2023-03-09T07:32:16;79.97;;;31.47;;
5795;SDS011;2924;51.458;7.046;2023-03-09T07:34:42;76.80;;;28.60;;
5795;SDS011;2924;51.458;7.046;2023-03-09T07:37:07;75.63;;;28.60;;
5795;SDS011;2924;51.458;7.046;2023-03-09T07:39:33;87.67;;;32.47;;
5795;SDS011;2924;51.458;7.046;2023-03-09T07:41:59;83.77;;;28.70;;
5795;SDS011;2924;51.458;7.046;2023-03-09T07:44:26;89.97;;;30.70;;
5795;SDS011;2924;51.458;7.046;2023-03-09T07:46:55;84.80;;;29.67;;
5795;SDS011;2924;51.458;7.046;2023-03-09T07:49:20;103.40;;;34.83;;
5795;SDS011;2924;51.458;7.046;2023-03-09T07:51:47;88.33;;;32.30;;
5795;SDS011;2924;51.458;7.046;2023-03-09T07:54:12;78.63;;;29.40;;
5795;SDS011;2924;51.458;7.046;2023-03-09T07:56:39;77.37;;;32.37;;
5795;SDS011;2924;51.458;7.046;2023-03-09T07:59:05;82.90;;;33.23;;
5795;SDS011;2924;51.458;7.046;2023-03-09T08:01:31;83.33;;;30.07;;
5795;SDS011;2924;51.458;7.046;2023-03-09T08:03:57;92.07;;;32.30;;
5795;SDS011;2924;51.458;7.046;2023-03-09T08:06:23;76.17;;;31.10;;
5795;SDS011;2924;51.458;7.046;2023-03-09T08:08:50;80.53;;;30.30;;
5795;SDS011;2924;51.458;7.046;2023-03-09T08:11:16;84.20;;;30.90;;
5795;SDS011;2924;51.458;7.046;2023-03-09T08:13:43;91.10;;;33.90;;
5795;SDS011;2924;51.458;7.046;2023-03-09T08:16:10;86.13;;;32.17;;
5795;SDS011;2924;51.458;7.046;2023-03-09T08:18:35;75.67;;;30.93;;
5795;SDS011;2924;51.458;7.046;2023-03-09T08:21:08;79.57;;;30.93;;
5795;SDS011;2924;51.458;7.046;2023-03-09T08:23:36;79.77;;;29.03;;
5795;SDS011;2924;51.458;7.046;2023-03-09T08:26:08;72.00;;;30.07;;
5795;SDS011;2924;51.458;7.046;2023-03-09T08:28:36;81.10;;;30.17;;
5795;SDS011;2924;51.458;7.046;2023-03-09T08:31:03;74.37;;;29.00;;
5795;SDS011;2924;51.458;7.046;2023-03-09T08:33:29;76.93;;;28.30;;
5795;SDS011;2924;51.458;7.046;2023-03-09T08:35:55;93.50;;;33.93;;
5795;SDS011;2924;51.458;7.046;2023-03-09T08:38:21;74.43;;;30.23;;
5795;SDS011;2924;51.458;7.046;2023-03-09T08:40:47;79.00;;;26.90;;
5795;SDS011;2924;51.458;7.046;2023-03-09T08:43:13;74.57;;;30.00;;
5795;SDS011;2924;51.458;7.046;2023-03-09T08:45:39;75.47;;;29.90;;
5795;SDS011;2924;51.458;7.046;2023-03-09T08:48:05;85.03;;;32.47;;
5795;SDS011;2924;51.458;7.046;2023-03-09T08:50:31;92.13;;;33.57;;
5795;SDS011;2924;51.458;7.046;2023-03-09T08:52:57;84.77;;;32.73;;
5795;SDS011;2924;51.458;7.046;2023-03-09T08:55:22;75.87;;;31.70;;
5795;SDS011;2924;51.458;7.046;2023-03-09T08:57:48;78.83;;;33.30;;
5795;SDS011;2924;51.458;7.046;2023-03-09T09:00:16;72.97;;;30.43;;
5795;SDS011;2924;51.458;7.046;2023-03-09T09:02:43;78.43;;;33.13;;
5795;SDS011;2924;51.458;7.046;2023-03-09T09:05:08;67.50;;;27.57;;
5795;SDS011;2924;51.458;7.046;2023-03-09T09:07:34;76.17;;;30.23;;
5795;SDS011;2924;51.458;7.046;2023-03-09T09:10:00;73.73;;;27.87;;
5795;SDS011;2924;51.458;7.046;2023-03-09T09:12:26;52.33;;;24.10;;
5795;SDS011;2924;51.458;7.046;2023-03-09T09:14:53;57.57;;;25.67;;
5795;SDS011;2924;51.458;7.046;2023-03-09T09:17:20;60.70;;;26.10;;
5795;SDS011;2924;51.458;7.046;2023-03-09T09:19:46;61.17;;;25.97;;
5795;SDS011;2924;51.458;7.046;2023-03-09T09:22:11;62.27;;;27.60;;
5795;SDS011;2924;51.458;7.046;2023-03-09T09:24:37;67.40;;;28.80;;
5795;SDS011;2924;51.458;7.046;2023-03-09T09:27:03;58.87;;;25.37;;
5795;SDS011;2924;51.458;7.046;2023-03-09T09:29:31;63.03;;;27.83;;
5795;SDS011;2924;51.458;7.046;2023-03-09T09:31:58;63.00;;;29.07;;
5795;SDS011;2924;51.458;7.046;2023-03-09T09:34:24;67.60;;;30.93;;
5795;SDS011;2924;51.458;7.046;2023-03-09T09:36:50;58.47;;;27.63;;
5795;SDS011;2924;51.458;7.046;2023-03-09T09:39:15;57.27;;;28.43;;
5795;SDS011;2924;51.458;7.046;2023-03-09T09:41:43;67.33;;;29.33;;
5795;SDS011;2924;51.458;7.046;2023-03-09T09:44:17;61.97;;;28.13;;
5795;SDS011;2924;51.458;7.046;2023-03-09T09:46:46;60.80;;;29.70;;
5795;SDS011;2924;51.458;7.046;2023-03-09T09:49:21;64.27;;;30.90;;
5795;SDS011;2924;51.458;7.046;2023-03-09T09:54:41;71.67;;;31.13;;
5795;SDS011;2924;51.458;7.046;2023-03-09T10:03:03;61.70;;;27.47;;
5795;SDS011;2924;51.458;7.046;2023-03-09T10:08:19;59.73;;;27.40;;
5795;SDS011;2924;51.458;7.046;2023-03-09T10:10:49;57.53;;;28.40;;
5795;SDS011;2924;51.458;7.046;2023-03-09T10:13:16;47.43;;;23.77;;
5795;SDS011;2924;51.458;7.046;2023-03-09T10:19:17;52.73;;;27.80;;
5795;SDS011;2924;51.458;7.046;2023-03-09T10:21:57;63.20;;;29.60;;
5795;SDS011;2924;51.458;7.046;2023-03-09T10:27:30;53.93;;;29.50;;
5795;SDS011;2924;51.458;7.046;2023-03-09T10:35:20;50.60;;;27.57;;
5795;SDS011;2924;51.458;7.046;2023-03-09T10:38:16;56.10;;;29.57;;
5795;SDS011;2924;51.458;7.046;2023-03-09T10:40:53;55.17;;;29.73;;
5795;SDS011;2924;51.458;7.046;2023-03-09T10:45:54;54.13;;;27.47;;
5795;SDS011;2924;51.458;7.046;2023-03-09T10:48:24;57.63;;;29.77;;
5795;SDS011;2924;51.458;7.046;2023-03-09T10:51:01;51.47;;;27.70;;
5795;SDS011;2924;51.458;7.046;2023-03-09T10:53:38;57.00;;;27.00;;
5795;SDS011;2924;51.458;7.046;2023-03-09T11:01:31;48.67;;;25.50;;
5795;SDS011;2924;51.458;7.046;2023-03-09T11:04:00;44.93;;;24.67;;
5795;SDS011;2924;51.458;7.046;2023-03-09T11:06:36;51.23;;;26.33;;
5795;SDS011;2924;51.458;7.046;2023-03-09T11:11:36;43.80;;;25.03;;
5795;SDS011;2924;51.458;7.046;2023-03-09T11:14:04;41.27;;;23.70;;
5795;SDS011;2924;51.458;7.046;2023-03-09T11:16:50;44.17;;;23.90;;
5795;SDS011;2924;51.458;7.046;2023-03-09T11:19:18;48.37;;;25.97;;
5795;SDS011;2924;51.458;7.046;2023-03-09T11:24:22;43.20;;;24.57;;
5795;SDS011;2924;51.458;7.046;2023-03-09T11:26:57;46.17;;;25.47;;
5795;SDS011;2924;51.458;7.046;2023-03-09T11:32:20;47.77;;;23.57;;
5795;SDS011;2924;51.458;7.046;2023-03-09T11:34:46;60.53;;;24.33;;
5795;SDS011;2924;51.458;7.046;2023-03-09T11:40:19;47.03;;;23.77;;
5795;SDS011;2924;51.458;7.046;2023-03-09T11:42:58;42.47;;;23.13;;
5795;SDS011;2924;51.458;7.046;2023-03-09T11:45:28;43.60;;;23.97;;
5795;SDS011;2924;51.458;7.046;2023-03-09T11:48:02;47.40;;;24.07;;
5795;SDS011;2924;51.458;7.046;2023-03-09T11:50:46;46.53;;;23.57;;
5795;SDS011;2924;51.458;7.046;2023-03-09T11:53:34;39.30;;;21.03;;
5795;SDS011;2924;51.458;7.046;2023-03-09T11:58:47;47.73;;;23.30;;
5795;SDS011;2924;51.458;7.046;2023-03-09T12:03:46;49.13;;;26.73;;
5795;SDS011;2924;51.458;7.046;2023-03-09T12:06:33;51.87;;;27.97;;
5795;SDS011;2924;51.458;7.046;2023-03-09T12:09:27;47.53;;;27.23;;
5795;SDS011;2924;51.458;7.046;2023-03-09T12:12:01;48.27;;;26.23;;
5795;SDS011;2924;51.458;7.046;2023-03-09T12:14:39;49.47;;;25.93;;
5795;SDS011;2924;51.458;7.046;2023-03-09T12:17:17;45.63;;;25.60;;
5795;SDS011;2924;51.458;7.046;2023-03-09T12:19:49;51.10;;;27.50;;
5795;SDS011;2924;51.458;7.046;2023-03-09T12:22:20;45.10;;;25.63;;
5795;SDS011;2924;51.458;7.046;2023-03-09T12:24:55;41.23;;;23.03;;
5795;SDS011;2924;51.458;7.046;2023-03-09T12:27:33;53.60;;;24.10;;
5795;SDS011;2924;51.458;7.046;2023-03-09T12:34:51;44.83;;;23.93;;
5795;SDS011;2924;51.458;7.046;2023-03-09T12:42:49;48.83;;;22.80;;
5795;SDS011;2924;51.458;7.046;2023-03-09T12:47:46;41.23;;;23.53;;
5795;SDS011;2924;51.458;7.046;2023-03-09T12:53:22;36.47;;;21.17;;
5795;SDS011;2924;51.458;7.046;2023-03-09T12:55:50;40.87;;;22.70;;
5795;SDS011;2924;51.458;7.046;2023-03-09T13:03:17;49.60;;;25.10;;
5795;SDS011;2924;51.458;7.046;2023-03-09T13:05:48;42.83;;;22.83;;
5795;SDS011;2924;51.458;7.046;2023-03-09T13:21:39;50.60;;;23.30;;
5795;SDS011;2924;51.458;7.046;2023-03-09T13:24:16;45.83;;;23.00;;
5795;SDS011;2924;51.458;7.046;2023-03-09T13:27:01;46.23;;;24.00;;
5795;SDS011;2924;51.458;7.046;2023-03-09T13:29:38;36.60;;;20.10;;
5795;SDS011;2924;51.458;7.046;2023-03-09T13:32:20;38.70;;;21.80;;
5795;SDS011;2924;51.458;7.046;2023-03-09T13:34:49;33.97;;;17.50;;
5795;SDS011;2924;51.458;7.046;2023-03-09T13:37:18;33.80;;;19.87;;
5795;SDS011;2924;51.458;7.046;2023-03-09T13:39:56;31.03;;;17.23;;
5795;SDS011;2924;51.458;7.046;2023-03-09T13:42:31;28.57;;;16.60;;
5795;SDS011;2924;51.458;7.046;2023-03-09T13:45:00;30.70;;;16.93;;
5795;SDS011;2924;51.458;7.046;2023-03-09T13:47:28;32.97;;;19.03;;
5795;SDS011;2924;51.458;7.046;2023-03-09T13:49:59;30.87;;;18.10;;
5795;SDS011;2924;51.458;7.046;2023-03-09T13:52:25;33.17;;;18.97;;
5795;SDS011;2924;51.458;7.046;2023-03-09T13:54:56;40.93;;;20.00;;
5795;SDS011;2924;51.458;7.046;2023-03-09T13:57:45;38.63;;;19.70;;
5795;SDS011;2924;51.458;7.046;2023-03-09T14:00:17;30.80;;;18.23;;
5795;SDS011;2924;51.458;7.046;2023-03-09T14:02:45;36.17;;;18.70;;
5795;SDS011;2924;51.458;7.046;2023-03-09T14:10:30;41.77;;;21.10;;
5795;SDS011;2924;51.458;7.046;2023-03-09T14:15:30;41.87;;;19.77;;
5795;SDS011;2924;51.458;7.046;2023-03-09T14:17:56;37.50;;;20.30;;
5795;SDS011;2924;51.458;7.046;2023-03-09T14:20:24;37.97;;;19.77;;
5795;SDS011;2924;51.458;7.046;2023-03-09T14:26:02;43.73;;;21.73;;
5795;SDS011;2924;51.458;7.046;2023-03-09T14:28:29;43.07;;;20.83;;
5795;SDS011;2924;51.458;7.046;2023-03-09T14:31:07;44.20;;;21.73;;
5795;SDS011;2924;51.458;7.046;2023-03-09T14:36:19;47.70;;;22.70;;
5795;SDS011;2924;51.458;7.046;2023-03-09T14:38:52;47.70;;;22.03;;
5795;SDS011;2924;51.458;7.046;2023-03-09T14:41:24;39.03;;;20.47;;
5795;SDS011;2924;51.458;7.046;2023-03-09T14:43:52;41.93;;;20.23;;
5795;SDS011;2924;51.458;7.046;2023-03-09T14:48:49;38.90;;;20.20;;
5795;SDS011;2924;51.458;7.046;2023-03-09T14:56:31;35.43;;;18.87;;
5795;SDS011;2924;51.458;7.046;2023-03-09T14:58:57;37.67;;;19.47;;
5795;SDS011;2924;51.458;7.046;2023-03-09T15:01:25;40.63;;;20.10;;
5795;SDS011;2924;51.458;7.046;2023-03-09T15:03:54;36.87;;;21.33;;
5795;SDS011;2924;51.458;7.046;2023-03-09T15:06:19;42.97;;;20.97;;
5795;SDS011;2924;51.458;7.046;2023-03-09T15:08:47;39.13;;;20.90;;
5795;SDS011;2924;51.458;7.046;2023-03-09T15:11:13;40.93;;;20.47;;
5795;SDS011;2924;51.458;7.046;2023-03-09T15:13:38;46.53;;;21.10;;
5795;SDS011;2924;51.458;7.046;2023-03-09T15:16:04;37.10;;;20.27;;
5795;SDS011;2924;51.458;7.046;2023-03-09T15:18:30;41.40;;;19.57;;
5795;SDS011;2924;51.458;7.046;2023-03-09T15:20:55;41.03;;;20.60;;
5795;SDS011;2924;51.458;7.046;2023-03-09T15:23:21;43.87;;;19.80;;
5795;SDS011;2924;51.458;7.046;2023-03-09T15:25:47;36.20;;;18.60;;
5795;SDS011;2924;51.458;7.046;2023-03-09T15:28:13;38.43;;;19.40;;
5795;SDS011;2924;51.458;7.046;2023-03-09T15:30:39;42.87;;;21.07;;
5795;SDS011;2924;51.458;7.046;2023-03-09T15:33:04;43.27;;;20.30;;
5795;SDS011;2924;51.458;7.046;2023-03-09T15:35:30;34.80;;;21.00;;
5795;SDS011;2924;51.458;7.046;2023-03-09T15:37:55;40.60;;;20.30;;
5795;SDS011;2924;51.458;7.046;2023-03-09T15:40:21;37.90;;;18.93;;
5795;SDS011;2924;51.458;7.046;2023-03-09T15:42:48;37.70;;;17.80;;
5795;SDS011;2924;51.458;7.046;2023-03-09T15:45:14;39.60;;;19.53;;
5795;SDS011;2924;51.458;7.046;2023-03-09T15:47:41;40.40;;;18.40;;
5795;SDS011;2924;51.458;7.046;2023-03-09T15:50:08;37.30;;;18.60;;
5795;SDS011;2924;51.458;7.046;2023-03-09T15:52:35;47.83;;;19.80;;
5795;SDS011;2924;51.458;7.046;2023-03-09T15:55:03;34.47;;;18.17;;
5795;SDS011;2924;51.458;7.046;2023-03-09T15:57:29;34.00;;;18.70;;
5795;SDS011;2924;51.458;7.046;2023-03-09T15:59:55;34.50;;;19.70;;
5795;SDS011;2924;51.458;7.046;2023-03-09T16:02:22;38.03;;;17.93;;
5795;SDS011;2924;51.458;7.046;2023-03-09T16:04:48;31.77;;;17.20;;
5795;SDS011;2924;51.458;7.046;2023-03-09T16:07:14;39.27;;;19.87;;
5795;SDS011;2924;51.458;7.046;2023-03-09T16:09:40;35.43;;;18.50;;
5795;SDS011;2924;51.458;7.046;2023-03-09T16:12:06;43.10;;;21.83;;
5795;SDS011;2924;51.458;7.046;2023-03-09T16:14:32;37.87;;;17.73;;
5795;SDS011;2924;51.458;7.046;2023-03-09T16:16:57;41.63;;;20.43;;
5795;SDS011;2924;51.458;7.046;2023-03-09T16:19:23;31.93;;;16.50;;
5795;SDS011;2924;51.458;7.046;2023-03-09T16:21:49;49.37;;;24.93;;
5795;SDS011;2924;51.458;7.046;2023-03-09T16:24:14;35.57;;;19.20;;
5795;SDS011;2924;51.458;7.046;2023-03-09T16:26:40;35.83;;;17.47;;
5795;SDS011;2924;51.458;7.046;2023-03-09T16:29:06;34.70;;;17.37;;
5795;SDS011;2924;51.458;7.046;2023-03-09T16:31:32;33.50;;;18.73;;
5795;SDS011;2924;51.458;7.046;2023-03-09T16:33:57;36.07;;;17.20;;
5795;SDS011;2924;51.458;7.046;2023-03-09T16:36:23;33.50;;;16.60;;
5795;SDS011;2924;51.458;7.046;2023-03-09T16:38:49;30.60;;;15.70;;
5795;SDS011;2924;51.458;7.046;2023-03-09T16:41:15;41.90;;;18.50;;
5795;SDS011;2924;51.458;7.046;2023-03-09T16:43:42;31.60;;;17.20;;
5795;SDS011;2924;51.458;7.046;2023-03-09T16:46:09;27.33;;;15.97;;
5795;SDS011;2924;51.458;7.046;2023-03-09T16:48:41;32.47;;;16.47;;